Bow Mar, Colorado
Current Conditions -  °F | °C
As of 3:53 AM on Wednesday 22 Oct 2014 (Local Time) from KAPA Reporting Station
Few Clouds Few Clouds  
Wind Chill: 50°   Ceiling: Unl
Heat Index: 50°   Visibility: 10mi
Dew Point: 42°   Wind: 3mph
Humidity: 74%   Direction: 290°WNW
Pressure: 30.04"   Gusts: NA
Location:  39.5977°N, 105.071°W
Report Text: KAPA 220953Z 29003KT 10SM FEW110 FEW190 10/06 A3004 RMK AO2 SLP128 T01000056
Loading
Personal Weather Stations






























Interactive Weather Map
Tropical Storm Tracking
New forecast layout! Learn more

10-Day Weather Forecast

Advertisements
Track Severe Weather on mobile